Camp Ernest, Kentucky
Current Conditions -  °F | °C
As of 1:52 AM on Thursday 27 Nov 2014 (Local Time) from KCVG Reporting Station
Overcast Overcast  
Wind Chill: 22°   Ceiling: 10000
Heat Index: 28°   Visibility: 8mi
Dew Point: 21°   Wind: 6mph
Humidity: 75%   Direction: 340°NNW
Pressure: 30.06"   Gusts: NA
Location:  39.0238°N, 84.7647°W
Report Text: KCVG 270652Z 34005KT 8SM OVC100 M02/M06 A3006 RMK AO2 SLP182 T10221061
Loading
Personal Weather Stations






























Interactive Weather Map New forecast layout! Learn more

10-Day Weather Forecast

Advertisements
Track Severe Weather on mobile